createdAt,value
2019-05-07T00:02:36.036Z,99597.30
2019-05-07T00:05:25.862Z,99600.28
2019-05-07T00:07:56.231Z,99605.39
2019-05-07T00:10:28.228Z,99604.13
2019-05-07T00:12:58.599Z,99613.48
2019-05-07T00:15:28.968Z,99611.75
2019-05-07T00:17:59.421Z,99607.94
2019-05-07T00:20:49.236Z,99607.95
2019-05-07T00:23:39.004Z,99606.25
2019-05-07T00:26:28.802Z,99607.97
2019-05-07T00:29:18.590Z,99595.22
2019-05-07T00:32:08.421Z,99603.30
2019-05-07T00:43:32.374Z,99611.39
2019-05-07T00:48:57.903Z,99610.11
2019-05-07T00:51:47.199Z,99605.89
2019-05-07T00:54:36.976Z,99615.64
2019-05-07T00:57:26.729Z,99607.16
2019-05-07T00:59:57.093Z,99607.55
2019-05-07T01:02:27.428Z,99603.33
2019-05-07T01:04:57.784Z,99601.21
2019-05-07T01:07:28.124Z,99605.45
2019-05-07T01:10:02.232Z,99602.06
2019-05-07T01:12:53.134Z,99605.06
2019-05-07T01:15:46.779Z,99608.46
2019-05-07T01:18:18.823Z,99592.34
2019-05-07T01:20:49.209Z,99590.66
2019-05-07T01:23:19.560Z,99597.01
2019-05-07T01:25:52.593Z,99597.42
2019-05-07T01:28:53.515Z,99590.63
2019-05-07T01:37:23.205Z,99609.30
2019-05-07T01:40:05.432Z,99614.39
2019-05-07T01:42:36.693Z,99610.58
2019-05-07T01:45:27.238Z,99611.84
2019-05-07T01:47:57.592Z,99604.65
2019-05-07T01:50:47.320Z,99611.86
2019-05-07T01:53:17.676Z,99611.84
2019-05-07T01:55:48.054Z,99616.95
2019-05-07T01:58:37.829Z,99619.91
2019-05-07T02:01:27.575Z,99620.77
2019-05-07T02:04:36.214Z,99615.26
2019-05-07T02:07:25.439Z,99621.60
2019-05-07T02:10:34.302Z,99620.77
2019-05-07T02:13:24.051Z,99622.88
2019-05-07T02:16:00.993Z,99619.92
2019-05-07T02:18:45.901Z,99619.50
2019-05-07T02:21:35.705Z,99623.31
2019-05-07T02:24:25.459Z,99620.77
2019-05-07T02:27:15.227Z,99623.30
2019-05-07T02:29:45.611Z,99628.37
2019-05-07T02:32:35.404Z,99628.37
2019-05-07T02:35:25.155Z,99633.05
2019-05-07T02:38:34.156Z,99629.22
2019-05-07T02:44:14.074Z,99620.31
2019-05-07T02:53:06.655Z,99629.64
2019-05-07T02:55:57.367Z,99628.33
2019-05-07T02:58:27.715Z,99630.03
2019-05-07T03:04:25.060Z,99643.97
2019-05-07T03:07:05.245Z,99649.50
2019-05-07T03:09:54.987Z,99647.41
2019-05-07T03:12:25.364Z,99637.20
2019-05-07T03:14:55.692Z,99638.88
2019-05-07T03:17:26.041Z,99643.98
2019-05-07T03:25:56.041Z,99645.23
2019-05-07T03:28:26.585Z,99644.34
2019-05-07T03:34:25.556Z,99652.87
2019-05-07T03:39:58.444Z,99645.66
2019-05-07T03:45:58.303Z,99652.45
2019-05-07T03:48:32.988Z,99653.69
2019-05-07T03:51:13.363Z,99655.41
2019-05-07T03:53:56.487Z,99654.14
2019-05-07T03:56:26.837Z,99661.35
2019-05-07T03:58:57.180Z,99647.78
2019-05-07T04:01:27.552Z,99659.22
2019-05-07T04:03:57.892Z,99665.58
2019-05-07T04:06:47.654Z,99655.84
2019-05-07T04:09:17.981Z,99657.14
2019-05-07T04:11:48.345Z,99660.56
2019-05-07T04:14:18.685Z,99670.27
2019-05-07T04:16:49.083Z,99667.72
2019-05-07T04:19:38.819Z,99669.02
2019-05-07T04:22:09.192Z,99667.75
2019-05-07T04:25:17.799Z,99669.86
2019-05-07T04:28:14.177Z,99673.25
2019-05-07T04:30:44.580Z,99676.70
2019-05-07T04:38:48.931Z,99682.22
2019-05-07T04:41:38.800Z,99683.94
2019-05-07T04:44:09.145Z,99688.58
2019-05-07T04:46:43.501Z,99683.52
2019-05-07T04:49:23.832Z,99686.07
2019-05-07T04:55:03.668Z,99679.69
2019-05-07T04:57:53.314Z,99678.80
2019-05-07T05:00:34.905Z,99677.11
2019-05-07T05:03:24.415Z,99675.77
2019-05-07T05:06:14.225Z,99674.42
2019-05-07T05:09:04.292Z,99687.53
2019-05-07T05:11:43.894Z,99694.31
2019-05-07T05:14:25.048Z,99682.42
2019-05-07T05:16:55.406Z,99681.07
2019-05-07T05:19:45.141Z,99678.08
2019-05-07T05:25:33.262Z,99678.56
2019-05-07T05:28:03.620Z,99674.70
2019-05-07T05:30:52.941Z,99683.23
2019-05-07T05:33:42.720Z,99683.14
2019-05-07T05:36:13.129Z,99692.92
2019-05-07T05:38:43.470Z,99681.90
2019-05-07T05:41:13.841Z,99688.27
2019-05-07T05:44:22.835Z,99683.90
2019-05-07T05:46:53.239Z,99690.20
2019-05-07T05:49:23.634Z,99695.32
2019-05-07T05:52:14.480Z,99691.34
2019-05-07T06:00:59.701Z,99697.19
2019-05-07T06:03:48.950Z,99704.49
2019-05-07T06:07:10.489Z,99691.28
2019-05-07T06:12:56.888Z,99696.00
2019-05-07T06:16:05.548Z,99687.14
2019-05-07T06:18:54.850Z,99684.83
2019-05-07T06:22:03.496Z,99691.02
2019-05-07T06:24:59.697Z,99711.00
2019-05-07T06:27:32.391Z,99706.04
2019-05-07T06:30:13.798Z,99716.85
2019-05-07T06:32:44.656Z,99710.52
2019-05-07T06:41:15.800Z,99706.83
2019-05-07T06:43:52.933Z,99697.23
2019-05-07T06:46:23.338Z,99707.13
2019-05-07T06:48:55.454Z,99696.52
2019-05-07T06:51:47.793Z,99704.91
2019-05-07T06:54:28.442Z,99701.83
2019-05-07T06:56:58.828Z,99715.89
2019-05-07T06:59:48.157Z,99719.06
2019-05-07T07:02:56.807Z,99712.58
2019-05-07T07:06:05.541Z,99707.70
2019-05-07T07:14:22.725Z,99706.19
2019-05-07T07:17:04.437Z,99700.98
2019-05-07T07:19:36.192Z,99706.05
2019-05-07T07:22:26.234Z,99712.45
2019-05-07T07:24:56.585Z,99707.30
2019-05-07T07:27:26.944Z,99702.51
2019-05-07T07:30:16.240Z,99722.97
2019-05-07T07:35:32.125Z,99720.64
2019-05-07T07:38:32.850Z,99724.67
2019-05-07T07:41:32.788Z,99710.05
2019-05-07T07:44:03.196Z,99703.56
2019-05-07T07:46:33.598Z,99697.30
2019-05-07T07:49:23.377Z,99696.09
2019-05-07T07:51:53.774Z,99699.55
2019-05-07T07:54:43.511Z,99698.31
2019-05-07T07:57:32.802Z,99698.84
2019-05-07T08:00:23.385Z,99697.04
2019-05-07T08:03:02.633Z,99696.12
2019-05-07T08:05:33.047Z,99706.09
2019-05-07T08:08:03.518Z,99700.08
2019-05-07T08:10:33.870Z,99705.14
2019-05-07T08:13:23.641Z,99700.90
2019-05-07T08:15:54.006Z,99708.21
2019-05-07T08:21:08.038Z,99705.77
2019-05-07T08:23:50.206Z,99715.66
2019-05-07T08:26:39.980Z,99728.89
2019-05-07T08:29:11.881Z,99702.50
2019-05-07T08:32:22.323Z,99696.55
2019-05-07T08:38:02.357Z,99694.95
2019-05-07T08:40:45.060Z,99703.74
2019-05-07T08:43:15.417Z,99705.34
2019-05-07T08:46:04.669Z,99711.70
2019-05-07T08:51:35.449Z,99704.11
2019-05-07T08:54:07.510Z,99708.02
2019-05-07T08:59:43.695Z,99710.45
2019-05-07T09:02:32.849Z,99709.84
2019-05-07T09:05:03.250Z,99701.76
2019-05-07T09:07:52.991Z,99707.60
2019-05-07T09:10:42.774Z,99700.67
2019-05-07T09:13:13.135Z,99706.02
2019-05-07T09:15:43.511Z,99710.77
2019-05-07T09:18:33.231Z,99705.53
2019-05-07T09:21:22.988Z,99712.66
2019-05-07T09:24:12.757Z,99714.02
2019-05-07T09:27:02.779Z,99706.84
2019-05-07T09:29:59.081Z,99697.48
2019-05-07T09:35:58.179Z,99699.58
2019-05-07T09:38:28.551Z,99710.77
2019-05-07T09:40:58.941Z,99703.69
2019-05-07T09:43:48.709Z,99703.49
2019-05-07T09:46:20.719Z,99714.44
2019-05-07T09:49:03.119Z,99705.74
2019-05-07T09:51:39.147Z,99694.14
2019-05-07T09:54:09.530Z,99695.89
2019-05-07T09:56:42.122Z,99693.27
2019-05-07T09:59:24.876Z,99694.23
2019-05-07T10:01:55.237Z,99692.12
2019-05-07T10:04:45.069Z,99700.24
2019-05-07T10:07:15.466Z,99696.34
2019-05-07T10:16:12.678Z,99718.34
2019-05-07T10:18:53.858Z,99712.39
2019-05-07T10:21:25.914Z,99703.03
2019-05-07T10:23:56.278Z,99706.54
2019-05-07T10:29:29.151Z,99707.89
2019-05-07T10:31:59.522Z,99697.69
2019-05-07T10:37:32.089Z,99696.44
2019-05-07T10:43:24.711Z,99699.80
2019-05-07T10:46:33.330Z,99690.46
2019-05-07T10:52:27.677Z,99683.36
2019-05-07T10:55:00.049Z,99677.77
2019-05-07T10:57:42.224Z,99677.47
2019-05-07T11:03:44.949Z,99664.35
2019-05-07T11:06:34.733Z,99661.62
2019-05-07T11:09:24.505Z,99668.55
2019-05-07T11:12:14.281Z,99665.23
2019-05-07T11:15:04.320Z,99671.05
2019-05-07T11:20:32.043Z,99661.70
2019-05-07T11:23:13.857Z,99658.56
2019-05-07T11:26:03.641Z,99663.33
2019-05-07T11:28:53.412Z,99657.85
2019-05-07T11:31:43.199Z,99658.68
2019-05-07T11:37:32.661Z,99649.59
2019-05-07T11:43:44.075Z,99644.70
2019-05-07T11:46:52.810Z,99648.98
2019-05-07T11:50:03.197Z,99639.73
2019-05-07T11:55:38.980Z,99629.42
2019-05-07T11:58:09.399Z,99649.31
2019-05-07T12:00:44.349Z,99617.55
2019-05-07T12:03:16.374Z,99618.39
2019-05-07T12:05:46.758Z,99616.97
2019-05-07T12:08:17.125Z,99621.10
2019-05-07T12:10:47.515Z,99622.47
2019-05-07T12:13:18.082Z,99615.50
2019-05-07T12:15:48.603Z,99619.77
2019-05-07T12:18:38.410Z,99625.44
2019-05-07T12:21:18.299Z,99624.39
2019-05-07T12:24:02.101Z,99620.39
2019-05-07T12:29:27.519Z,99621.63
2019-05-07T12:32:25.158Z,99627.08
2019-05-07T12:35:17.173Z,99635.06
2019-05-07T12:37:49.531Z,99627.44
2019-05-07T12:40:32.632Z,99626.39
2019-05-07T12:43:22.385Z,99620.35
2019-05-07T12:46:12.292Z,99622.72
2019-05-07T12:48:42.743Z,99610.39
2019-05-07T12:51:13.127Z,99593.66
2019-05-07T12:56:51.988Z,99612.31
2019-05-07T12:59:34.832Z,99595.95
2019-05-07T13:05:18.922Z,99600.73
2019-05-07T13:10:35.313Z,99602.02
2019-05-07T13:13:05.788Z,99600.77
2019-05-07T13:15:36.155Z,99592.55
2019-05-07T13:18:25.923Z,99582.86
2019-05-07T13:20:56.281Z,99601.98
2019-05-07T13:23:26.640Z,99577.60
2019-05-07T13:25:57.054Z,99584.13
2019-05-07T13:28:27.470Z,99596.69
2019-05-07T13:43:23.070Z,99582.20
2019-05-07T13:46:18.945Z,99584.44
2019-05-07T13:49:08.724Z,99594.48
2019-05-07T13:51:39.218Z,99581.09
2019-05-07T13:54:28.967Z,99588.17
2019-05-07T13:56:59.309Z,99586.00
2019-05-07T13:59:49.097Z,99585.91
2019-05-07T14:02:38.869Z,99573.13
2019-05-07T14:05:28.643Z,99583.72
2019-05-07T14:11:02.847Z,99572.83
2019-05-07T14:17:08.067Z,99565.30
2019-05-07T14:19:38.462Z,99559.08
2019-05-07T14:22:16.266Z,99556.67
2019-05-07T14:24:52.949Z,99565.72
2019-05-07T14:27:34.718Z,99565.53
2019-05-07T14:30:05.751Z,99570.12
2019-05-07T14:32:55.029Z,99559.98
2019-05-07T14:35:53.966Z,99581.98
2019-05-07T14:38:32.068Z,99563.73
2019-05-07T14:41:14.064Z,99562.64
2019-05-07T14:46:54.501Z,99560.57
2019-05-07T14:49:36.232Z,99554.23
2019-05-07T14:52:08.245Z,99560.00
2019-05-07T14:54:38.599Z,99559.66
2019-05-07T14:57:09.101Z,99562.05
2019-05-07T14:59:39.460Z,99568.67
2019-05-07T15:02:29.356Z,99575.05
2019-05-07T15:08:21.968Z,99564.73
2019-05-07T15:11:03.609Z,99560.78
2019-05-07T15:13:53.417Z,99564.23
2019-05-07T15:16:43.196Z,99564.50
2019-05-07T15:19:13.670Z,99569.17
2019-05-07T15:21:44.049Z,99574.00
2019-05-07T15:24:33.843Z,99574.07
2019-05-07T15:33:09.091Z,99568.01
2019-05-07T15:35:58.878Z,99570.31
2019-05-07T15:38:29.275Z,99565.02
2019-05-07T15:41:19.110Z,99557.02
2019-05-07T15:44:08.890Z,99556.40
2019-05-07T15:49:42.776Z,99553.91
2019-05-07T15:52:32.755Z,99549.87
2019-05-07T15:55:03.209Z,99548.98
2019-05-07T15:57:33.685Z,99547.31
2019-05-07T16:05:35.715Z,99543.77
2019-05-07T16:10:52.957Z,99543.19
2019-05-07T16:16:30.773Z,99544.99
2019-05-07T16:19:20.069Z,99542.83
2019-05-07T16:24:56.516Z,99537.00
2019-05-07T16:27:46.340Z,99534.66
2019-05-07T16:30:16.829Z,99536.76
2019-05-07T16:33:06.592Z,99535.73
2019-05-07T16:35:39.349Z,99539.56
2019-05-07T16:38:09.750Z,99540.36
2019-05-07T16:40:59.714Z,99541.16
2019-05-07T16:43:49.481Z,99538.02
2019-05-07T16:46:39.271Z,99533.94
2019-05-07T16:49:11.843Z,99532.94
2019-05-07T16:51:52.841Z,99536.89
2019-05-07T16:54:23.236Z,99535.86
2019-05-07T16:57:33.671Z,99540.61
2019-05-07T17:06:12.397Z,99531.50
2019-05-07T17:09:06.955Z,99529.59
2019-05-07T17:11:37.397Z,99538.08
2019-05-07T17:14:07.776Z,99537.83
2019-05-07T17:16:39.775Z,99534.88
2019-05-07T17:19:29.506Z,99524.78
2019-05-07T17:22:19.298Z,99532.20
2019-05-07T17:24:51.914Z,99522.66
2019-05-07T17:27:32.595Z,99532.22
2019-05-07T17:30:03.085Z,99533.22
2019-05-07T17:32:33.511Z,99532.64
2019-05-07T17:35:23.309Z,99535.05
2019-05-07T17:38:13.145Z,99529.07
2019-05-07T17:40:43.511Z,99533.64
2019-05-07T17:43:33.298Z,99531.70
2019-05-07T17:46:23.172Z,99536.06
2019-05-07T17:48:53.682Z,99535.27
2019-05-07T17:51:42.945Z,99535.67
2019-05-07T17:54:32.763Z,99534.69
2019-05-07T17:57:03.106Z,99539.69
2019-05-07T17:59:52.886Z,99538.33
2019-05-07T18:03:02.609Z,99538.52
2019-05-07T18:05:39.712Z,99539.49
2019-05-07T18:08:12.513Z,99537.94
2019-05-07T18:11:02.451Z,99547.86
2019-05-07T18:13:39.434Z,99543.47
2019-05-07T18:18:59.664Z,99546.86
2019-05-07T18:21:49.456Z,99551.98
2019-05-07T18:24:39.261Z,99553.88
2019-05-07T18:29:53.895Z,99556.95
2019-05-07T18:32:44.807Z,99555.47
2019-05-07T18:35:34.646Z,99559.89
2019-05-07T18:38:24.488Z,99560.86
2019-05-07T18:41:14.327Z,99564.97
2019-05-07T18:43:44.755Z,99557.54
2019-05-07T18:46:34.141Z,99564.91
2019-05-07T18:49:23.946Z,99562.39
2019-05-07T18:52:13.768Z,99559.92
2019-05-07T18:54:44.142Z,99569.69
2019-05-07T18:57:33.981Z,99569.73
2019-05-07T19:02:48.345Z,99566.38
2019-05-07T19:05:19.465Z,99571.59
2019-05-07T19:08:12.395Z,99570.73
2019-05-07T19:10:55.251Z,99574.33
2019-05-07T19:13:27.371Z,99569.42
2019-05-07T19:16:18.182Z,99576.83
2019-05-07T19:18:48.811Z,99580.75
2019-05-07T19:21:19.198Z,99578.77
2019-05-07T19:23:49.675Z,99578.31
2019-05-07T19:26:20.049Z,99580.36
2019-05-07T19:28:50.483Z,99582.37
2019-05-07T19:31:21.985Z,99580.16
2019-05-07T19:34:43.316Z,99579.31
2019-05-07T19:37:33.119Z,99574.70
2019-05-07T19:40:03.529Z,99568.81
2019-05-07T19:42:33.907Z,99562.80
2019-05-07T19:45:24.445Z,99565.31
2019-05-07T19:48:15.233Z,99561.40
2019-05-07T19:50:45.646Z,99559.02
2019-05-07T19:53:16.025Z,99555.73
2019-05-07T19:56:05.380Z,99559.13
2019-05-07T19:58:35.769Z,99557.08
2019-05-07T20:04:13.392Z,99555.99
2019-05-07T20:06:55.929Z,99551.58
2019-05-07T20:12:25.832Z,99558.13
2019-05-07T20:14:56.247Z,99564.63
2019-05-07T20:17:26.663Z,99553.19
2019-05-07T20:20:17.509Z,99557.52
2019-05-07T20:23:08.200Z,99555.92
2019-05-07T20:25:58.008Z,99557.91
2019-05-07T20:28:28.373Z,99546.66
2019-05-07T20:30:58.839Z,99549.72
2019-05-07T20:33:48.597Z,99552.80
2019-05-07T20:36:20.634Z,99552.53
2019-05-07T20:39:12.629Z,99562.80
2019-05-07T20:41:59.913Z,99560.72
2019-05-07T20:44:32.362Z,99566.72
2019-05-07T20:47:07.894Z,99569.31
2019-05-07T20:49:38.273Z,99564.61
2019-05-07T20:52:28.057Z,99567.22
2019-05-07T20:55:27.977Z,99564.67
2019-05-07T20:57:55.060Z,99561.77
2019-05-07T21:00:44.856Z,99566.86
2019-05-07T21:03:34.182Z,99568.14
2019-05-07T21:06:04.605Z,99567.58
2019-05-07T21:08:35.087Z,99563.80
2019-05-07T21:11:05.487Z,99565.93
2019-05-07T21:13:35.883Z,99571.49
2019-05-07T21:16:25.706Z,99568.14
2019-05-07T21:19:15.507Z,99570.64
2019-05-07T21:22:05.330Z,99571.92
2019-05-07T21:24:55.160Z,99571.05
2019-05-07T21:27:25.543Z,99571.56
2019-05-07T21:29:55.979Z,99575.03
2019-05-07T21:32:26.527Z,99576.78
2019-05-07T21:35:16.319Z,99579.81
2019-05-07T21:38:06.326Z,99579.30
2019-05-07T21:40:36.801Z,99575.53
2019-05-07T21:43:07.171Z,99570.08
2019-05-07T21:45:56.954Z,99568.41
2019-05-07T21:48:46.689Z,99575.16
2019-05-07T21:51:18.710Z,99577.65
2019-05-07T21:54:27.367Z,99575.56
2019-05-07T21:57:16.622Z,99571.34
2019-05-07T22:06:10.594Z,99570.12
2019-05-07T22:08:52.519Z,99571.42
2019-05-07T22:11:34.803Z,99572.61
2019-05-07T22:14:05.386Z,99570.08
2019-05-07T22:16:35.761Z,99562.49
2019-05-07T22:19:25.532Z,99557.84
2019-05-07T22:21:56.021Z,99559.10
2019-05-07T22:24:26.384Z,99558.29
2019-05-07T22:27:16.162Z,99558.28
2019-05-07T22:33:08.806Z,99548.99
2019-05-07T22:35:41.263Z,99551.51
2019-05-07T22:38:32.385Z,99547.75
2019-05-07T22:41:13.912Z,99550.70
2019-05-07T22:43:45.944Z,99549.47
2019-05-07T22:49:19.575Z,99549.92
2019-05-07T22:51:49.976Z,99557.99
2019-05-07T22:54:39.774Z,99549.52
2019-05-07T23:03:04.486Z,99546.11
2019-05-07T23:05:34.845Z,99543.58
2019-05-07T23:08:05.234Z,99546.55
2019-05-07T23:13:37.688Z,99541.06
2019-05-07T23:16:08.242Z,99538.09
2019-05-07T23:18:38.707Z,99538.52
2019-05-07T23:21:09.144Z,99541.92
2019-05-07T23:23:58.923Z,99541.05
2019-05-07T23:26:29.364Z,99541.49
2019-05-07T23:29:02.435Z,99538.95
2019-05-07T23:31:44.298Z,99535.58
2019-05-07T23:34:14.682Z,99534.71
2019-05-07T23:36:45.136Z,99530.48
2019-05-07T23:45:02.012Z,99529.19
2019-05-07T23:47:44.715Z,99518.99
2019-05-07T23:50:28.169Z,99517.70
2019-05-07T23:52:58.797Z,99514.27
2019-05-07T23:55:29.271Z,99514.27
2019-05-07T23:57:59.703Z,99518.06
